Airfield :







YOU CAN JOIN US ON...

 
LOGIN :

Register | Disclaimer

   EN    FR    IT 

 









Legend :    VFR   Marginal VFR   IFR   Intensive IFR   Very Intensive IFR
Visi :
Ceiling :
>= 8 km
>= 3000ft
5 to 8 km
1000 to 3000 ft
1500m to 5 km
500 to 1000 ft
800 to 1500m
200 to 500 ft
< 800m
< 200 ft
Symbols :   Thunderstorms  Fog  Heavy snow  Heavy precipitations  Wind > 20 kt






- Airport Elevation : 20 ft
- IATA code : BOS


KBOS - General Edward Lawrence Logan International

CURRENT METAR :
  • 170354Z 33011KT 10SM CLR M02/M17 A3052 RMK AO2 SLP333 T10171167

EXPIRED METARs :
  • 170254Z 33010KT 10SM CLR M02/M18 A3052 RMK AO2 SLP332 T10171178 50001
  • 170154Z 33010KT 10SM CLR M01/M18 A3052 RMK AO2 SLP334 T10111178

TAF KBOS
Valid from the 17 at 00:00 until the 18 at 06:00 UTC


162333Z 1700/1806 36007KT P6SM SKC
FM170900 03007KT P6SM FEW030
FM171100 04008KT P6SM BKN025
FM171600 06013G20KT P6SM BKN025
FM180100 06015G24KT P6SM OVC020
FM180300 05015G25KT P6SM OVC015
FM180400 05015G26KT P6SM VCSH OVC015



MET'MAP, your aeronautical weather chart ! - Copyright ORBIFLY December 2007 - Disclaimer

ORBIFLY MET'MAP TEAM :

Programming & Development : Alexandra Zaïnal
Concept & Development : Baudouin d'Aumeries
Co-Development & Prog : Marc-Olivier Méhu
Technical & hardware support : Manuel Goepfert

Contact : metmap@orbifly.com




SOURCES & CREDITS :

   NOAA